createdAt,value
2018-09-03T00:01:11.486Z,23.97
2018-09-03T00:03:40.643Z,23.98
2018-09-03T00:06:09.730Z,23.98
2018-09-03T00:08:38.846Z,23.97
2018-09-03T00:11:08.242Z,23.94
2018-09-03T00:13:37.429Z,23.96
2018-09-03T00:16:06.549Z,23.98
2018-09-03T00:18:35.813Z,23.94
2018-09-03T00:21:04.886Z,23.96
2018-09-03T00:23:34.068Z,23.96
2018-09-03T00:26:03.239Z,23.93
2018-09-03T00:28:32.308Z,23.95
2018-09-03T00:31:06.840Z,23.95
2018-09-03T00:33:41.482Z,23.96
2018-09-03T00:36:15.814Z,23.95
2018-09-03T00:38:50.342Z,23.95
2018-09-03T00:41:24.866Z,23.94
2018-09-03T00:44:57.154Z,23.93
2018-09-03T00:47:26.290Z,23.89
2018-09-03T00:49:55.664Z,23.90
2018-09-03T00:52:25.035Z,23.89
2018-09-03T00:54:54.147Z,23.89
2018-09-03T00:57:23.351Z,23.91
2018-09-03T00:59:52.503Z,23.91
2018-09-03T01:02:21.791Z,23.91
2018-09-03T01:04:50.914Z,23.89
2018-09-03T01:07:20.055Z,23.89
2018-09-03T01:09:49.174Z,23.88
2018-09-03T01:12:18.259Z,23.86
2018-09-03T01:14:47.311Z,23.87
2018-09-03T01:17:16.396Z,23.86
2018-09-03T01:19:45.531Z,23.85
2018-09-03T01:22:14.741Z,23.85
2018-09-03T01:24:43.882Z,23.86
2018-09-03T01:27:12.974Z,23.85
2018-09-03T01:29:42.196Z,23.84
2018-09-03T01:32:11.444Z,23.84
2018-09-03T01:34:40.572Z,23.85
2018-09-03T01:37:09.571Z,23.84
2018-09-03T01:39:38.669Z,23.84
2018-09-03T01:42:07.730Z,23.83
2018-09-03T01:44:36.908Z,23.83
2018-09-03T01:47:05.999Z,23.83
2018-09-03T01:49:35.130Z,23.83
2018-09-03T01:52:04.216Z,23.81
2018-09-03T01:54:33.421Z,23.81
2018-09-03T01:57:02.486Z,23.81
2018-09-03T01:59:31.579Z,23.82
2018-09-03T02:02:00.733Z,23.81
2018-09-03T02:04:29.894Z,23.81
2018-09-03T02:06:59.014Z,23.81
2018-09-03T02:09:28.107Z,23.80
2018-09-03T02:11:57.266Z,23.80
2018-09-03T02:14:26.394Z,23.81
2018-09-03T02:16:55.511Z,23.79
2018-09-03T02:19:24.583Z,23.80
2018-09-03T02:21:53.678Z,23.79
2018-09-03T02:24:22.877Z,23.80
2018-09-03T02:26:52.204Z,23.81
2018-09-03T02:29:21.507Z,23.81
2018-09-03T02:31:50.670Z,23.85
2018-09-03T02:34:19.867Z,23.87
2018-09-03T02:36:49.038Z,23.87
2018-09-03T02:39:18.410Z,23.88
2018-09-03T02:41:47.497Z,23.90
2018-09-03T02:44:16.594Z,23.88
2018-09-03T02:46:45.723Z,23.86
2018-09-03T02:49:15.082Z,23.87
2018-09-03T02:51:44.879Z,23.89
2018-09-03T02:54:14.373Z,23.88
2018-09-03T02:56:43.822Z,23.89
2018-09-03T02:59:12.908Z,23.89
2018-09-03T03:01:42.092Z,23.93
2018-09-03T03:04:12.302Z,23.92
2018-09-03T03:06:42.032Z,23.93
2018-09-03T03:09:13.151Z,23.94
2018-09-03T03:11:42.872Z,23.94
2018-09-03T03:14:12.604Z,23.90
2018-09-03T03:16:42.018Z,23.89
2018-09-03T03:19:11.498Z,23.88
2018-09-03T03:21:42.558Z,23.88
2018-09-03T03:24:11.963Z,23.84
2018-09-03T03:26:42.680Z,23.83
2018-09-03T03:29:11.992Z,23.84
2018-09-03T03:31:41.074Z,23.84
2018-09-03T03:34:10.384Z,23.86
2018-09-03T03:36:39.471Z,23.86
2018-09-03T03:39:09.187Z,23.84
2018-09-03T03:41:38.317Z,23.85
2018-09-03T03:44:07.783Z,23.84
2018-09-03T03:46:36.883Z,23.84
2018-09-03T03:49:06.269Z,23.82
2018-09-03T03:51:35.477Z,23.80
2018-09-03T03:54:04.537Z,23.81
2018-09-03T03:56:33.871Z,23.81
2018-09-03T03:59:03.051Z,23.82
2018-09-03T04:01:32.168Z,23.79
2018-09-03T04:04:01.255Z,23.79
2018-09-03T04:06:30.387Z,23.79
2018-09-03T04:09:02.242Z,23.79
2018-09-03T04:11:32.373Z,23.78
2018-09-03T04:14:01.682Z,23.76
2018-09-03T04:16:31.347Z,23.76
2018-09-03T04:19:00.846Z,23.78
2018-09-03T04:21:30.229Z,23.77
2018-09-03T04:23:59.531Z,23.76
2018-09-03T04:26:28.867Z,23.76
2018-09-03T04:28:58.240Z,23.75
2018-09-03T04:31:27.523Z,23.76
2018-09-03T04:33:57.025Z,23.75
2018-09-03T04:36:26.545Z,23.74
2018-09-03T04:38:56.449Z,23.72
2018-09-03T04:41:25.575Z,23.73
2018-09-03T04:43:54.651Z,23.73
2018-09-03T04:46:23.779Z,23.71
2018-09-03T04:48:53.167Z,23.70
2018-09-03T04:51:22.280Z,23.72
2018-09-03T04:53:51.378Z,23.72
2018-09-03T04:56:20.491Z,23.73
2018-09-03T04:58:49.599Z,23.71
2018-09-03T05:01:18.963Z,23.71
2018-09-03T05:03:48.775Z,23.73
2018-09-03T05:06:17.831Z,23.74
2018-09-03T05:08:46.965Z,23.72
2018-09-03T05:11:16.052Z,23.73
2018-09-03T05:13:45.140Z,23.71
2018-09-03T05:16:14.456Z,23.71
2018-09-03T05:18:43.566Z,23.72
2018-09-03T05:21:12.676Z,23.71
2018-09-03T05:23:41.712Z,23.72
2018-09-03T05:26:10.820Z,23.70
2018-09-03T05:28:39.843Z,23.69
2018-09-03T05:31:08.982Z,23.69
2018-09-03T05:33:38.256Z,23.68
2018-09-03T05:36:07.544Z,23.69
2018-09-03T05:38:36.639Z,23.71
2018-09-03T05:41:05.855Z,23.69
2018-09-03T05:43:35.248Z,23.67
2018-09-03T05:46:04.412Z,23.67
2018-09-03T05:48:33.656Z,23.66
2018-09-03T05:51:02.724Z,23.68
2018-09-03T05:53:31.812Z,23.68
2018-09-03T05:56:00.912Z,23.66
2018-09-03T05:58:30.035Z,23.68
2018-09-03T06:00:59.127Z,23.67
2018-09-03T06:03:28.323Z,23.66
2018-09-03T06:05:57.444Z,23.67
2018-09-03T06:08:26.633Z,23.66
2018-09-03T06:10:55.736Z,23.66
2018-09-03T06:13:25.225Z,23.65
2018-09-03T06:15:54.293Z,23.65
2018-09-03T06:18:23.400Z,23.65
2018-09-03T06:20:52.467Z,23.66
2018-09-03T06:23:21.523Z,23.65
2018-09-03T06:25:50.695Z,23.72
2018-09-03T06:28:19.779Z,23.76
2018-09-03T06:30:48.897Z,23.80
2018-09-03T06:33:17.971Z,23.82
2018-09-03T06:35:47.211Z,23.83
2018-09-03T06:38:16.263Z,23.87
2018-09-03T06:40:45.363Z,23.88
2018-09-03T06:43:14.576Z,23.88
2018-09-03T06:45:43.663Z,23.93
2018-09-03T06:48:12.739Z,23.98
2018-09-03T06:50:41.863Z,23.99
2018-09-03T06:53:11.158Z,24.01
2018-09-03T06:55:40.228Z,24.01
2018-09-03T06:58:09.334Z,24.01
2018-09-03T07:00:38.557Z,24.02
2018-09-03T07:03:07.753Z,24.02
2018-09-03T07:05:36.783Z,24.03
2018-09-03T07:08:06.340Z,24.03
2018-09-03T07:10:35.535Z,24.03
2018-09-03T07:13:06.494Z,24.05
2018-09-03T07:15:36.359Z,24.05
2018-09-03T07:18:06.003Z,24.08
2018-09-03T07:20:35.643Z,24.08
2018-09-03T07:23:04.822Z,24.11
2018-09-03T07:25:33.919Z,24.10
2018-09-03T07:28:03.221Z,24.12
2018-09-03T07:30:32.295Z,24.11
2018-09-03T07:33:01.399Z,24.11
2018-09-03T07:35:30.530Z,24.10
2018-09-03T07:37:59.767Z,24.14
2018-09-03T07:40:28.911Z,24.15
2018-09-03T07:42:57.999Z,24.16
2018-09-03T07:45:27.076Z,24.18
2018-09-03T07:47:56.159Z,24.19
2018-09-03T07:50:25.271Z,24.18
2018-09-03T07:52:54.363Z,24.18
2018-09-03T07:55:23.447Z,24.18
2018-09-03T07:57:52.575Z,24.19
2018-09-03T08:00:21.611Z,24.20
2018-09-03T08:02:50.732Z,24.20
2018-09-03T08:05:19.868Z,24.20
2018-09-03T08:07:48.943Z,24.21
2018-09-03T08:10:18.019Z,24.21
2018-09-03T08:12:47.263Z,24.20
2018-09-03T08:15:16.544Z,24.22
2018-09-03T08:17:45.604Z,24.22
2018-09-03T08:20:14.751Z,24.25
2018-09-03T08:22:43.934Z,24.28
2018-09-03T08:25:13.016Z,24.27
2018-09-03T08:27:42.342Z,24.26
2018-09-03T08:30:11.564Z,24.27
2018-09-03T08:32:40.780Z,24.28
2018-09-03T08:35:09.892Z,24.28
2018-09-03T08:37:38.946Z,24.28
2018-09-03T08:40:08.144Z,24.30
2018-09-03T08:42:37.258Z,24.31
2018-09-03T08:45:06.592Z,24.31
2018-09-03T08:47:35.724Z,24.34
2018-09-03T08:50:08.720Z,24.32
2018-09-03T08:52:37.824Z,24.32
2018-09-03T08:55:07.005Z,24.32
2018-09-03T08:57:36.119Z,24.32
2018-09-03T09:00:05.404Z,24.33
2018-09-03T09:02:34.568Z,24.33
2018-09-03T09:05:03.912Z,24.32
2018-09-03T09:07:33.005Z,24.33
2018-09-03T09:10:02.202Z,24.37
2018-09-03T09:12:31.392Z,24.37
2018-09-03T09:15:00.567Z,24.40
2018-09-03T09:17:29.845Z,24.41
2018-09-03T09:19:59.256Z,24.43
2018-09-03T09:22:28.374Z,24.44
2018-09-03T09:24:57.586Z,24.44
2018-09-03T09:27:26.971Z,24.45
2018-09-03T09:29:56.049Z,24.45
2018-09-03T09:32:25.209Z,24.46
2018-09-03T09:34:54.320Z,24.48
2018-09-03T09:37:23.479Z,24.50
2018-09-03T09:39:52.836Z,24.53
2018-09-03T09:42:21.904Z,24.55
2018-09-03T09:44:51.069Z,24.55
2018-09-03T09:47:20.243Z,24.58
2018-09-03T09:49:49.390Z,24.58
2018-09-03T09:52:18.700Z,24.59
2018-09-03T09:54:47.912Z,24.59
2018-09-03T09:57:17.382Z,24.60
2018-09-03T09:59:46.560Z,24.60
2018-09-03T10:02:15.692Z,24.62
2018-09-03T10:04:44.877Z,24.63
2018-09-03T10:07:14.140Z,24.65
2018-09-03T10:09:43.378Z,24.64
2018-09-03T10:12:12.534Z,24.69
2018-09-03T10:14:41.733Z,24.67
2018-09-03T10:17:10.915Z,24.68
2018-09-03T10:19:40.144Z,24.70
2018-09-03T10:22:09.240Z,24.72
2018-09-03T10:24:38.439Z,24.72
2018-09-03T10:27:07.636Z,24.76
2018-09-03T10:29:36.832Z,24.75
2018-09-03T10:32:06.151Z,24.74
2018-09-03T10:34:35.451Z,24.74
2018-09-03T10:37:05.114Z,24.76
2018-09-03T10:39:34.251Z,24.77
2018-09-03T10:42:03.445Z,24.78
2018-09-03T10:44:32.795Z,24.80
2018-09-03T10:47:01.999Z,24.82
2018-09-03T10:49:31.267Z,24.80
2018-09-03T10:52:00.363Z,24.82
2018-09-03T10:54:29.548Z,24.82
2018-09-03T10:56:58.644Z,24.82
2018-09-03T10:59:27.782Z,24.82
2018-09-03T11:01:57.128Z,24.84
2018-09-03T11:04:26.342Z,24.86
2018-09-03T11:06:55.428Z,24.86
2018-09-03T11:09:24.622Z,24.84
2018-09-03T11:11:53.858Z,24.85
2018-09-03T11:14:23.212Z,24.85
2018-09-03T11:16:52.432Z,24.85
2018-09-03T11:19:24.060Z,24.86
2018-09-03T11:21:53.312Z,24.85
2018-09-03T11:24:22.590Z,24.87
2018-09-03T11:26:51.757Z,24.89
2018-09-03T11:29:21.680Z,24.91
2018-09-03T11:31:50.783Z,24.89
2018-09-03T11:34:19.963Z,24.87
2018-09-03T11:36:49.196Z,24.87
2018-09-03T11:39:18.401Z,24.85
2018-09-03T11:41:47.486Z,24.88
2018-09-03T11:44:16.634Z,24.88
2018-09-03T11:59:45.179Z,24.90
2018-09-03T12:02:14.341Z,24.80
2018-09-03T12:04:43.437Z,24.82
2018-09-03T12:07:12.503Z,24.83
2018-09-03T12:09:41.614Z,24.87
2018-09-03T12:12:10.844Z,24.91
2018-09-03T12:14:42.231Z,24.93
2018-09-03T12:17:11.421Z,24.94
2018-09-03T12:19:40.587Z,24.97
2018-09-03T12:22:09.680Z,24.99
2018-09-03T12:24:38.878Z,24.98
2018-09-03T12:27:08.063Z,25.00
2018-09-03T12:29:37.192Z,24.98
2018-09-03T12:32:06.455Z,25.00
2018-09-03T12:34:35.523Z,25.02
2018-09-03T12:37:04.829Z,25.05
2018-09-03T12:39:34.065Z,25.07
2018-09-03T12:42:03.153Z,25.03
2018-09-03T12:44:32.243Z,25.09
2018-09-03T12:47:01.414Z,25.11
2018-09-03T12:49:30.538Z,25.10
2018-09-03T12:51:59.637Z,25.12
2018-09-03T12:54:28.747Z,25.15
2018-09-03T12:56:57.807Z,25.17
2018-09-03T12:59:26.919Z,25.17
2018-09-03T13:01:56.091Z,25.14
2018-09-03T13:04:25.256Z,25.14
2018-09-03T13:06:54.537Z,25.17
2018-09-03T13:09:23.606Z,25.17
2018-09-03T13:11:52.677Z,25.16
2018-09-03T13:14:21.778Z,25.14
2018-09-03T13:16:50.915Z,25.13
2018-09-03T13:19:19.996Z,25.11
2018-09-03T13:21:48.995Z,25.13
2018-09-03T13:24:18.060Z,25.15
2018-09-03T13:26:47.299Z,25.13
2018-09-03T13:29:16.347Z,25.13
2018-09-03T13:31:45.490Z,25.14
2018-09-03T13:34:14.640Z,25.12
2018-09-03T13:36:43.784Z,25.10
2018-09-03T13:39:12.882Z,25.11
2018-09-03T13:41:41.993Z,25.12
2018-09-03T13:44:11.304Z,25.12
2018-09-03T13:46:41.500Z,25.12
2018-09-03T13:49:10.829Z,25.14
2018-09-03T13:51:40.022Z,25.13
2018-09-03T13:54:09.203Z,25.15
2018-09-03T13:56:38.436Z,25.15
2018-09-03T13:59:07.712Z,25.16
2018-09-03T14:01:36.886Z,25.16
2018-09-03T14:04:06.092Z,25.15
2018-09-03T14:06:35.216Z,25.16
2018-09-03T14:09:06.121Z,25.16
2018-09-03T14:11:35.364Z,25.15
2018-09-03T14:14:04.617Z,25.08
2018-09-03T14:16:34.052Z,25.14
2018-09-03T14:19:03.234Z,25.11
2018-09-03T14:21:32.350Z,25.10
2018-09-03T14:24:01.512Z,25.10
2018-09-03T14:26:30.657Z,25.10
2018-09-03T14:28:59.963Z,25.10
2018-09-03T14:31:29.113Z,25.11
2018-09-03T14:33:58.193Z,25.13
2018-09-03T14:36:27.278Z,25.13
2018-09-03T14:38:56.396Z,25.10
2018-09-03T14:41:25.500Z,25.10
2018-09-03T14:43:54.561Z,25.08
2018-09-03T14:46:23.786Z,25.03
2018-09-03T14:48:52.937Z,25.05
2018-09-03T14:51:22.081Z,25.00
2018-09-03T14:53:51.292Z,24.97
2018-09-03T14:56:20.434Z,24.96
2018-09-03T14:58:49.685Z,24.95
2018-09-03T15:01:18.810Z,24.96
2018-09-03T15:03:47.969Z,24.98
2018-09-03T15:06:17.284Z,24.94
2018-09-03T15:08:46.471Z,24.94
2018-09-03T15:11:15.571Z,24.93
2018-09-03T15:13:44.816Z,24.92
2018-09-03T15:16:13.956Z,24.90
2018-09-03T15:18:43.072Z,24.90
2018-09-03T15:21:12.276Z,24.88
2018-09-03T15:23:41.468Z,24.88
2018-09-03T15:26:10.734Z,24.90
2018-09-03T15:28:40.016Z,24.85
2018-09-03T15:31:09.867Z,24.82
2018-09-03T15:33:38.982Z,24.83
2018-09-03T15:36:08.232Z,24.82
2018-09-03T15:38:37.603Z,24.80
2018-09-03T15:41:06.930Z,24.80
2018-09-03T15:43:36.078Z,24.80
2018-09-03T15:46:06.456Z,24.81
2018-09-03T15:48:35.666Z,24.82
2018-09-03T15:51:05.265Z,24.78
2018-09-03T15:53:34.421Z,24.73
2018-09-03T15:56:03.985Z,24.72
2018-09-03T15:58:33.328Z,24.69
2018-09-03T16:01:02.495Z,24.69
2018-09-03T16:03:31.615Z,24.68
2018-09-03T16:06:00.793Z,24.70
2018-09-03T16:08:29.889Z,24.72
2018-09-03T16:10:58.997Z,24.71
2018-09-03T16:13:28.117Z,24.68
2018-09-03T16:15:57.269Z,24.68
2018-09-03T16:18:26.493Z,24.66
2018-09-03T16:20:55.630Z,24.67
2018-09-03T16:23:24.916Z,24.65
2018-09-03T16:25:54.084Z,24.67
2018-09-03T16:28:23.182Z,24.66
2018-09-03T16:30:52.424Z,24.64
2018-09-03T16:33:21.600Z,24.63
2018-09-03T16:35:50.763Z,24.58
2018-09-03T16:38:20.049Z,24.57
2018-09-03T16:40:49.179Z,24.57
2018-09-03T16:43:18.377Z,24.59
2018-09-03T16:45:47.497Z,24.61
2018-09-03T16:48:16.711Z,24.58
2018-09-03T16:50:46.026Z,24.59
2018-09-03T16:53:15.285Z,24.60
2018-09-03T16:55:44.496Z,24.61
2018-09-03T16:58:13.664Z,24.56
2018-09-03T17:00:42.861Z,24.56
2018-09-03T17:03:11.957Z,24.53
2018-09-03T17:05:41.419Z,24.50
2018-09-03T17:08:10.824Z,24.32
2018-09-03T17:10:40.100Z,24.28
2018-09-03T17:13:09.207Z,24.28
2018-09-03T17:15:38.376Z,24.20
2018-09-03T17:18:07.577Z,24.15
2018-09-03T17:20:36.749Z,24.29
2018-09-03T17:23:05.958Z,24.34
2018-09-03T17:25:35.189Z,24.37
2018-09-03T17:28:04.370Z,24.45
2018-09-03T17:30:33.481Z,24.48
2018-09-03T17:33:02.671Z,24.50
2018-09-03T17:35:31.829Z,24.54
2018-09-03T17:38:00.953Z,24.52
2018-09-03T17:40:30.145Z,24.55
2018-09-03T17:42:59.327Z,24.51
2018-09-03T17:45:28.557Z,24.44
2018-09-03T17:47:58.785Z,24.41
2018-09-03T17:50:27.917Z,24.39
2018-09-03T17:52:57.061Z,24.38
2018-09-03T17:55:26.237Z,24.41
2018-09-03T17:57:55.337Z,24.42
2018-09-03T18:00:24.539Z,24.35
2018-09-03T18:02:53.868Z,24.36
2018-09-03T18:05:23.037Z,24.36
2018-09-03T18:07:52.169Z,24.39
2018-09-03T18:10:21.269Z,24.40
2018-09-03T18:12:50.433Z,24.35
2018-09-03T18:15:19.693Z,24.28
2018-09-03T18:17:48.971Z,24.23
2018-09-03T18:20:18.089Z,24.18
2018-09-03T18:22:47.184Z,24.20
2018-09-03T18:25:16.301Z,24.24
2018-09-03T18:27:45.622Z,23.95
2018-09-03T18:30:14.880Z,23.90
2018-09-03T18:32:44.213Z,23.81
2018-09-03T18:35:13.338Z,23.80
2018-09-03T18:37:42.578Z,23.77
2018-09-03T18:40:11.802Z,23.67
2018-09-03T18:42:40.905Z,23.67
2018-09-03T18:45:10.313Z,23.63
2018-09-03T18:47:39.735Z,23.51
2018-09-03T18:50:10.614Z,23.50
2018-09-03T18:52:40.133Z,23.53
2018-09-03T18:55:09.716Z,23.52
2018-09-03T18:57:39.174Z,23.47
2018-09-03T19:00:08.831Z,23.48
2018-09-03T19:02:38.192Z,23.54
2018-09-03T19:05:07.379Z,23.50
2018-09-03T19:07:36.673Z,23.31
2018-09-03T19:10:06.391Z,23.35
2018-09-03T19:12:35.850Z,23.38
2018-09-03T19:15:05.213Z,23.30
2018-09-03T19:17:34.499Z,23.36
2018-09-03T19:20:03.557Z,23.42
2018-09-03T19:22:33.000Z,23.51
2018-09-03T19:25:02.179Z,23.57
2018-09-03T19:27:32.217Z,23.54
2018-09-03T19:30:01.444Z,23.35
2018-09-03T19:32:30.779Z,23.35
2018-09-03T19:34:59.889Z,23.42
2018-09-03T19:37:29.110Z,23.48
2018-09-03T19:39:58.209Z,23.52
2018-09-03T19:42:27.427Z,23.57
2018-09-03T19:44:56.544Z,23.58
2018-09-03T19:47:25.902Z,23.60
2018-09-03T19:49:55.114Z,23.57
2018-09-03T19:52:24.244Z,23.59
2018-09-03T19:54:53.332Z,23.59
2018-09-03T19:57:22.611Z,23.59
2018-09-03T19:59:51.804Z,23.64
2018-09-03T20:02:20.992Z,23.61
2018-09-03T20:04:50.784Z,23.62
2018-09-03T20:07:19.987Z,23.64
2018-09-03T20:09:50.769Z,23.66
2018-09-03T20:12:20.048Z,23.70
2018-09-03T20:14:49.252Z,23.76
2018-09-03T20:17:18.423Z,23.79
2018-09-03T20:19:47.834Z,23.81
2018-09-03T20:22:18.262Z,23.84
2018-09-03T20:24:47.365Z,23.85
2018-09-03T20:27:16.483Z,23.91
2018-09-03T20:29:45.736Z,23.92
2018-09-03T20:32:14.852Z,23.95
2018-09-03T20:34:43.946Z,23.98
2018-09-03T20:37:13.035Z,23.99
2018-09-03T20:39:42.112Z,24.00
2018-09-03T20:42:11.192Z,24.02
2018-09-03T20:44:40.343Z,24.03
2018-09-03T20:47:09.722Z,24.06
2018-09-03T20:49:38.828Z,24.09
2018-09-03T20:52:30.303Z,24.09
2018-09-03T20:55:00.421Z,24.10
2018-09-03T20:57:31.945Z,24.10
2018-09-03T21:00:01.048Z,24.09
2018-09-03T21:02:30.881Z,24.09
2018-09-03T21:05:01.567Z,24.08
2018-09-03T21:07:36.243Z,24.09
2018-09-03T21:10:11.375Z,24.08
2018-09-03T21:12:40.627Z,24.07
2018-09-03T21:15:09.979Z,24.05
2018-09-03T21:17:39.689Z,24.05
2018-09-03T21:20:10.425Z,24.08
2018-09-03T21:22:40.549Z,24.05
2018-09-03T21:25:09.756Z,24.05
2018-09-03T21:27:39.049Z,24.05
2018-09-03T21:30:09.546Z,24.04
2018-09-03T21:32:40.602Z,24.03
2018-09-03T21:35:10.553Z,24.03
2018-09-03T21:37:39.683Z,24.05
2018-09-03T21:40:08.912Z,24.03
2018-09-03T21:42:38.632Z,24.03
2018-09-03T21:45:10.073Z,24.03
2018-09-03T21:47:40.150Z,24.03
2018-09-03T21:50:09.236Z,24.02
2018-09-03T21:52:38.410Z,24.01
2018-09-03T21:55:08.414Z,24.02
2018-09-03T21:57:39.729Z,24.01
2018-09-03T22:00:10.992Z,24.02
2018-09-03T22:02:40.446Z,24.01
2018-09-03T22:06:39.786Z,24.00
2018-09-03T22:09:09.182Z,23.99
2018-09-03T22:11:43.569Z,23.99
2018-09-03T22:14:17.721Z,23.99
2018-09-03T22:16:46.890Z,23.98
2018-09-03T22:19:17.851Z,23.99
2018-09-03T22:21:47.118Z,23.99
2018-09-03T22:24:16.330Z,23.99
2018-09-03T22:26:45.426Z,24.00
2018-09-03T22:29:15.873Z,23.98
2018-09-03T22:31:47.055Z,23.97
2018-09-03T22:34:16.704Z,23.98
2018-09-03T22:36:45.836Z,23.98
2018-09-03T22:39:21.463Z,23.98
2018-09-03T22:41:57.776Z,23.99
2018-09-03T22:44:28.146Z,23.98
2018-09-03T22:46:57.684Z,23.97
2018-09-03T22:49:27.053Z,23.97
2018-09-03T22:51:57.381Z,23.98
2018-09-03T22:54:27.758Z,23.98
2018-09-03T22:56:57.598Z,23.97
2018-09-03T22:59:26.728Z,23.97
2018-09-03T23:01:55.779Z,23.97
2018-09-03T23:04:25.482Z,23.97
2018-09-03T23:06:56.513Z,23.94
2018-09-03T23:09:26.639Z,23.94
2018-09-03T23:11:55.761Z,23.93
2018-09-03T23:14:25.028Z,23.95
2018-09-03T23:16:54.324Z,23.95
2018-09-03T23:19:24.916Z,23.95
2018-09-03T23:21:55.976Z,23.95
2018-09-03T23:24:25.375Z,23.95
2018-09-03T23:26:54.750Z,23.93
2018-09-03T23:29:24.209Z,23.95
2018-09-03T23:31:55.761Z,23.94
2018-09-03T23:34:25.952Z,23.94
2018-09-03T23:36:55.259Z,23.94
2018-09-03T23:39:24.347Z,23.94
2018-09-03T23:41:53.496Z,23.93
2018-09-03T23:44:23.079Z,23.93
2018-09-03T23:46:53.898Z,23.94
2018-09-03T23:53:39.507Z,23.94
2018-09-03T23:56:10.604Z,23.93
2018-09-03T23:58:42.684Z,23.90
